createdAt,value
2023-04-02T00:02:22.866Z,67.84
2023-04-02T00:05:51.756Z,67.48
2023-04-02T00:09:13.304Z,69.06
2023-04-02T00:12:35.496Z,69.32
2023-04-02T00:15:58.998Z,70.21
2023-04-02T00:19:30.663Z,68.91
2023-04-02T00:22:52.732Z,68.96
2023-04-02T00:26:36.694Z,69.01
2023-04-02T00:30:01.413Z,68.19
2023-04-02T00:33:30.339Z,68.33
2023-04-02T00:36:52.715Z,69.02
2023-04-02T00:40:28.069Z,70.34
2023-04-02T00:43:52.703Z,70.07
2023-04-02T00:47:18.934Z,70.46
2023-04-02T00:50:42.867Z,69.72
2023-04-02T00:54:09.591Z,69.87
2023-04-02T00:57:33.585Z,69.16
2023-04-02T01:00:56.715Z,69.29
2023-04-02T01:04:32.681Z,68.28
2023-04-02T01:08:17.620Z,68.11
2023-04-02T01:11:56.629Z,68.74
2023-04-02T01:15:18.085Z,69.38
2023-04-02T01:19:13.873Z,69.83
2023-04-02T01:22:42.601Z,69.92
2023-04-02T01:26:19.377Z,68.97
2023-04-02T01:29:49.013Z,68.65
2023-04-02T01:33:12.352Z,68.41
2023-04-02T01:37:06.318Z,68.91
2023-04-02T01:40:30.950Z,69.07
2023-04-02T01:44:12.198Z,68.77
2023-04-02T01:47:33.942Z,69.84
2023-04-02T01:50:58.177Z,69.86
2023-04-02T01:54:23.483Z,69.47
2023-04-02T01:57:52.020Z,69.52
2023-04-02T02:01:15.490Z,69.77
2023-04-02T02:04:40.091Z,69.20
2023-04-02T02:08:04.911Z,69.12
2023-04-02T02:11:29.837Z,69.49
2023-04-02T02:14:53.921Z,70.66
2023-04-02T02:18:19.594Z,70.24
2023-04-02T02:21:48.615Z,69.62
2023-04-02T02:25:19.613Z,69.03
2023-04-02T02:28:43.831Z,69.13
2023-04-02T02:32:07.854Z,69.91
2023-04-02T02:35:43.186Z,69.56
2023-04-02T02:39:07.497Z,69.77
2023-04-02T02:42:36.304Z,69.88
2023-04-02T02:45:58.455Z,69.82
2023-04-02T02:49:26.148Z,69.95
2023-04-02T02:52:53.615Z,70.00
2023-04-02T02:56:18.711Z,70.39
2023-04-02T02:59:43.962Z,70.03
2023-04-02T03:03:09.605Z,70.70
2023-04-02T03:06:31.496Z,70.99
2023-04-02T03:10:05.608Z,70.40
2023-04-02T03:13:42.363Z,70.89
2023-04-02T03:17:16.490Z,71.57
2023-04-02T03:20:57.309Z,71.44
2023-04-02T03:24:26.663Z,72.47
2023-04-02T03:27:54.642Z,72.30
2023-04-02T03:31:28.589Z,71.63
2023-04-02T03:35:01.731Z,71.93
2023-04-02T03:38:30.311Z,71.72
2023-04-02T03:41:57.096Z,72.87
2023-04-02T03:45:28.746Z,72.87
2023-04-02T03:48:55.823Z,71.33
2023-04-02T03:52:28.085Z,71.63
2023-04-02T03:55:50.365Z,71.71
2023-04-02T03:59:22.821Z,71.14
2023-04-02T04:02:49.806Z,71.09
2023-04-02T04:06:22.843Z,70.97
2023-04-02T04:09:49.209Z,71.66
2023-04-02T04:13:18.854Z,72.80
2023-04-02T04:16:54.080Z,72.30
2023-04-02T04:20:22.004Z,73.62
2023-04-02T04:23:50.448Z,74.02
2023-04-02T04:27:42.953Z,74.57
2023-04-02T04:31:38.964Z,74.32
2023-04-02T04:35:19.890Z,73.90
2023-04-02T04:38:46.079Z,75.09
2023-04-02T04:42:12.654Z,75.14
2023-04-02T04:45:40.405Z,74.98
2023-04-02T04:49:17.326Z,74.43
2023-04-02T04:52:41.119Z,73.78
2023-04-02T04:56:18.481Z,74.41
2023-04-02T05:00:00.970Z,73.72
2023-04-02T05:03:48.873Z,72.10
2023-04-02T05:07:23.401Z,72.38
2023-04-02T05:10:53.514Z,70.79
2023-04-02T05:14:40.851Z,70.89
2023-04-02T05:18:10.692Z,71.12
2023-04-02T05:21:44.020Z,71.53
2023-04-02T05:25:31.808Z,70.11
2023-04-02T05:29:15.057Z,71.85
2023-04-02T05:32:41.974Z,71.27
2023-04-02T05:36:20.690Z,70.10
2023-04-02T05:39:46.159Z,69.40
2023-04-02T05:43:15.693Z,68.73
2023-04-02T05:46:50.707Z,68.75
2023-04-02T05:50:24.311Z,67.87
2023-04-02T05:53:59.074Z,67.33
2023-04-02T05:57:43.161Z,67.46
2023-04-02T06:01:18.243Z,68.08
2023-04-02T06:04:47.336Z,67.74
2023-04-02T06:08:19.370Z,66.48
2023-04-02T06:11:49.222Z,64.58
2023-04-02T06:15:18.952Z,63.88
2023-04-02T06:18:44.858Z,65.01
2023-04-02T06:22:19.101Z,65.32
2023-04-02T06:25:47.171Z,64.46
2023-04-02T06:29:26.990Z,63.56
2023-04-02T06:32:48.878Z,62.94
2023-04-02T06:36:12.522Z,64.50
2023-04-02T06:39:34.252Z,61.92
2023-04-02T06:42:59.894Z,62.55
2023-04-02T06:46:32.422Z,60.81
2023-04-02T06:50:02.274Z,61.19
2023-04-02T06:53:28.221Z,60.72
2023-04-02T06:56:52.190Z,61.46
2023-04-02T07:00:26.415Z,60.24
2023-04-02T07:03:48.384Z,61.92
2023-04-02T07:07:09.994Z,61.48
2023-04-02T07:10:31.645Z,60.30
2023-04-02T07:13:55.515Z,58.54
2023-04-02T07:17:18.251Z,55.96
2023-04-02T07:20:42.207Z,54.93
2023-04-02T07:24:07.165Z,55.14
2023-04-02T07:27:28.761Z,56.01
2023-04-02T07:30:53.136Z,57.44
2023-04-02T07:34:14.729Z,57.57
2023-04-02T07:37:37.520Z,57.54
2023-04-02T07:41:06.328Z,56.91
2023-04-02T07:44:29.042Z,56.13
2023-04-02T07:47:50.661Z,55.96
2023-04-02T07:51:18.626Z,58.23
2023-04-02T07:54:40.228Z,57.47
2023-04-02T07:58:04.249Z,57.61
2023-04-02T08:01:35.075Z,56.81
2023-04-02T08:04:59.219Z,57.98
2023-04-02T08:08:22.462Z,58.82
2023-04-02T08:11:46.914Z,59.09
2023-04-02T08:15:09.950Z,57.94
2023-04-02T08:18:34.262Z,57.29
2023-04-02T08:21:56.393Z,58.19
2023-04-02T08:25:21.176Z,57.69
2023-04-02T08:28:42.956Z,57.23
2023-04-02T08:32:04.789Z,59.36
2023-04-02T08:35:28.666Z,59.95
2023-04-02T08:38:51.087Z,60.01
2023-04-02T08:42:25.099Z,60.18
2023-04-02T08:46:05.920Z,57.98
2023-04-02T08:49:35.989Z,57.43
2023-04-02T08:52:59.336Z,57.08
2023-04-02T08:56:29.141Z,57.72
2023-04-02T08:59:59.863Z,58.57
2023-04-02T09:03:46.348Z,57.03
2023-04-02T09:07:15.042Z,57.82
2023-04-02T09:10:49.010Z,59.31
2023-04-02T09:14:18.707Z,58.78
2023-04-02T09:17:53.135Z,58.37
2023-04-02T09:21:22.513Z,57.91
2023-04-02T09:24:44.122Z,57.00
2023-04-02T09:28:05.993Z,57.13
2023-04-02T09:31:39.301Z,59.18
2023-04-02T09:35:24.451Z,59.93
2023-04-02T09:39:16.709Z,59.94
2023-04-02T09:42:40.993Z,59.38
2023-04-02T09:46:04.266Z,60.15
2023-04-02T09:49:38.477Z,59.02
2023-04-02T09:53:29.101Z,58.65
2023-04-02T09:57:02.717Z,60.45
2023-04-02T10:00:32.229Z,58.98
2023-04-02T10:03:57.057Z,59.12
2023-04-02T10:07:42.962Z,59.04
2023-04-02T10:11:11.064Z,59.20
2023-04-02T10:14:43.380Z,58.23
2023-04-02T10:18:16.654Z,56.41
2023-04-02T10:21:44.198Z,57.64
2023-04-02T10:25:16.272Z,56.52
2023-04-02T10:28:53.286Z,55.49
2023-04-02T10:32:26.406Z,57.46
2023-04-02T10:35:54.149Z,57.70
2023-04-02T10:39:24.799Z,58.68
2023-04-02T10:43:23.806Z,56.20
2023-04-02T10:46:45.561Z,54.47
2023-04-02T10:50:32.538Z,52.94
2023-04-02T10:54:07.676Z,51.50
2023-04-02T10:57:31.940Z,52.48
2023-04-02T11:01:20.298Z,52.95
2023-04-02T11:04:48.389Z,53.68
2023-04-02T11:08:21.891Z,52.51
2023-04-02T11:11:48.952Z,54.15
2023-04-02T11:15:16.819Z,52.82
2023-04-02T11:18:38.822Z,50.87
2023-04-02T11:22:25.745Z,48.61
2023-04-02T11:25:49.712Z,47.52
2023-04-02T11:29:19.338Z,45.61
2023-04-02T11:32:49.329Z,46.43
2023-04-02T11:37:02.144Z,45.28
2023-04-02T11:40:45.115Z,44.95
2023-04-02T11:44:24.752Z,43.69
2023-04-02T11:48:01.792Z,43.32
2023-04-02T11:51:23.684Z,42.45
2023-04-02T11:54:51.206Z,40.91
2023-04-02T11:58:28.166Z,42.94
2023-04-02T12:02:28.390Z,40.72
2023-04-02T12:05:58.689Z,42.91
2023-04-02T12:09:36.908Z,40.63
2023-04-02T12:12:58.959Z,42.17
2023-04-02T12:16:25.178Z,43.91
2023-04-02T12:19:53.391Z,43.78
2023-04-02T12:23:33.228Z,45.49
2023-04-02T12:27:22.655Z,45.61
2023-04-02T12:30:49.154Z,45.12
2023-04-02T12:34:16.930Z,45.44
2023-04-02T12:37:38.511Z,44.93
2023-04-02T12:41:06.394Z,46.22
2023-04-02T12:44:29.961Z,45.97
2023-04-02T12:47:53.292Z,47.95
2023-04-02T12:51:15.805Z,50.19
2023-04-02T12:54:57.594Z,48.35
2023-04-02T12:58:26.952Z,52.40
2023-04-02T13:01:57.493Z,48.63
2023-04-02T13:05:45.621Z,48.14
2023-04-02T13:09:35.886Z,49.94
2023-04-02T13:13:00.389Z,49.31
2023-04-02T13:16:28.446Z,49.92
2023-04-02T13:19:49.979Z,45.91
2023-04-02T13:23:29.860Z,47.18
2023-04-02T13:26:55.423Z,49.20
2023-04-02T13:30:23.047Z,48.97
2023-04-02T13:33:45.953Z,50.55
2023-04-02T13:37:12.332Z,50.06
2023-04-02T13:40:40.176Z,49.41
2023-04-02T13:44:03.256Z,50.01
2023-04-02T13:47:24.891Z,49.92
2023-04-02T13:50:46.815Z,47.86
2023-04-02T13:54:35.039Z,47.88
2023-04-02T13:58:04.959Z,48.29
2023-04-02T14:01:27.223Z,49.13
2023-04-02T14:04:52.855Z,48.55
2023-04-02T14:08:43.808Z,47.34
2023-04-02T14:12:11.299Z,47.95
2023-04-02T14:15:53.523Z,47.61
2023-04-02T14:19:36.805Z,46.89
2023-04-02T14:23:07.503Z,47.83
2023-04-02T14:26:39.610Z,46.72
2023-04-02T14:30:13.344Z,47.36
2023-04-02T14:34:02.626Z,48.61
2023-04-02T14:37:46.406Z,47.69
2023-04-02T14:41:14.977Z,48.57
2023-04-02T14:44:45.636Z,50.46
2023-04-02T14:48:19.464Z,54.89
2023-04-02T14:51:47.269Z,53.97
2023-04-02T14:55:21.590Z,55.78
2023-04-02T14:58:48.599Z,50.57
2023-04-02T15:02:23.145Z,53.40
2023-04-02T15:05:47.823Z,60.08
2023-04-02T15:09:28.701Z,56.70
2023-04-02T15:12:52.402Z,58.12
2023-04-02T15:16:20.703Z,59.09
2023-04-02T15:19:44.714Z,56.73
2023-04-02T15:23:38.557Z,58.83
2023-04-02T15:27:24.484Z,57.63
2023-04-02T15:30:51.679Z,59.59
2023-04-02T15:34:23.411Z,62.45
2023-04-02T15:37:51.100Z,66.09
2023-04-02T15:41:23.572Z,67.47
2023-04-02T15:45:05.428Z,68.45
2023-04-02T15:48:47.745Z,71.17
2023-04-02T15:52:21.759Z,72.27
2023-04-02T15:55:54.426Z,71.54
2023-04-02T15:59:55.591Z,71.15
2023-04-02T16:03:33.573Z,78.41
2023-04-02T16:07:19.681Z,75.41
2023-04-02T16:10:43.180Z,75.06
2023-04-02T16:14:25.650Z,76.22
2023-04-02T16:17:57.366Z,75.96
2023-04-02T16:21:30.250Z,76.11
2023-04-02T16:25:22.352Z,71.20
2023-04-02T16:29:01.286Z,74.52
2023-04-02T16:32:38.304Z,74.96
2023-04-02T16:36:10.030Z,75.05
2023-04-02T16:39:34.784Z,77.23
2023-04-02T16:43:21.058Z,77.34
2023-04-02T16:47:10.757Z,77.54
2023-04-02T16:50:51.066Z,76.40
2023-04-02T16:54:59.411Z,77.77
2023-04-02T16:58:27.144Z,77.33
2023-04-02T17:02:03.921Z,76.02
2023-04-02T17:05:33.881Z,76.30
2023-04-02T17:09:13.802Z,75.13
2023-04-02T17:12:47.463Z,75.05
2023-04-02T17:16:30.699Z,74.03
2023-04-02T17:19:58.109Z,74.86
2023-04-02T17:23:19.922Z,75.33
2023-04-02T17:26:43.515Z,76.11
2023-04-02T17:30:16.322Z,77.38
2023-04-02T17:33:37.974Z,77.84
2023-04-02T17:37:03.264Z,74.94
2023-04-02T17:40:40.919Z,73.98
2023-04-02T17:44:33.523Z,70.01
2023-04-02T17:48:15.003Z,68.72
2023-04-02T17:51:57.102Z,68.39
2023-04-02T17:55:40.849Z,64.68
2023-04-02T17:59:40.919Z,66.60
2023-04-02T18:03:12.669Z,65.97
2023-04-02T18:06:50.486Z,69.85
2023-04-02T18:10:36.077Z,62.58
2023-04-02T18:14:17.376Z,65.64
2023-04-02T18:18:09.427Z,68.78
2023-04-02T18:22:16.404Z,63.48
2023-04-02T18:26:03.472Z,67.59
2023-04-02T18:29:43.322Z,66.18
2023-04-02T18:33:22.480Z,61.84
2023-04-02T18:37:13.468Z,66.65
2023-04-02T18:41:11.732Z,61.78
2023-04-02T18:44:56.470Z,62.04
2023-04-02T18:48:28.955Z,58.43
2023-04-02T18:51:57.455Z,59.53
2023-04-02T18:55:24.565Z,61.35
2023-04-02T18:58:51.714Z,61.00
2023-04-02T19:02:49.280Z,60.67
2023-04-02T19:06:15.505Z,61.59
2023-04-02T19:09:43.329Z,61.37
2023-04-02T19:13:15.002Z,61.54
2023-04-02T19:16:58.332Z,62.79
2023-04-02T19:20:32.342Z,63.18
2023-04-02T19:24:18.841Z,62.83
2023-04-02T19:27:59.630Z,62.06
2023-04-02T19:31:40.177Z,62.11
2023-04-02T19:35:07.806Z,61.82
2023-04-02T19:39:17.484Z,61.46
2023-04-02T19:42:43.763Z,61.59
2023-04-02T19:46:05.437Z,62.34
2023-04-02T19:49:32.734Z,61.24
2023-04-02T19:52:54.415Z,60.65
2023-04-02T19:56:18.373Z,61.68
2023-04-02T19:59:42.075Z,60.07
2023-04-02T20:03:03.755Z,62.99
2023-04-02T20:06:30.090Z,62.37
2023-04-02T20:09:53.837Z,62.80
2023-04-02T20:13:15.499Z,63.05
2023-04-02T20:16:38.665Z,61.66
2023-04-02T20:20:00.385Z,61.20
2023-04-02T20:23:21.963Z,61.24
2023-04-02T20:26:43.563Z,61.96
2023-04-02T20:30:07.870Z,62.64
2023-04-02T20:33:32.605Z,61.83
2023-04-02T20:37:02.143Z,61.13
2023-04-02T20:40:25.133Z,60.78
2023-04-02T20:43:52.157Z,63.27
2023-04-02T20:47:16.221Z,63.74
2023-04-02T20:50:43.819Z,64.30
2023-04-02T20:54:05.447Z,64.17
2023-04-02T20:57:31.222Z,65.65
2023-04-02T21:00:55.304Z,64.38
2023-04-02T21:04:17.428Z,63.91
2023-04-02T21:07:43.681Z,64.06
2023-04-02T21:11:08.581Z,63.19
2023-04-02T21:14:35.709Z,64.64
2023-04-02T21:18:00.339Z,65.60
2023-04-02T21:21:24.557Z,65.39
2023-04-02T21:24:48.966Z,66.34
2023-04-02T21:28:15.417Z,66.86
2023-04-02T21:31:40.990Z,65.58
2023-04-02T21:35:03.556Z,64.99
2023-04-02T21:38:27.647Z,64.48
2023-04-02T21:41:52.021Z,66.36
2023-04-02T21:45:16.162Z,67.48
2023-04-02T21:48:41.858Z,68.06
2023-04-02T21:52:03.569Z,70.82
2023-04-02T21:55:25.334Z,73.47
2023-04-02T21:58:47.663Z,73.28
2023-04-02T22:02:09.344Z,73.81
2023-04-02T22:05:31.355Z,74.41
2023-04-02T22:08:59.427Z,74.88
2023-04-02T22:12:21.565Z,75.79
2023-04-02T22:15:47.714Z,75.70
2023-04-02T22:19:12.743Z,76.54
2023-04-02T22:22:34.349Z,76.26
2023-04-02T22:25:57.600Z,76.43
2023-04-02T22:29:19.297Z,77.16
2023-04-02T22:32:41.155Z,77.11
2023-04-02T22:36:03.752Z,76.51
2023-04-02T22:39:25.609Z,75.12
2023-04-02T22:42:48.012Z,74.28
2023-04-02T22:46:13.340Z,74.88
2023-04-02T22:49:37.195Z,74.33
2023-04-02T22:53:01.807Z,69.98
2023-04-02T22:56:31.763Z,70.31
2023-04-02T22:59:53.432Z,70.76
2023-04-02T23:03:15.115Z,68.37
2023-04-02T23:06:36.717Z,67.06
2023-04-02T23:10:01.372Z,65.46
2023-04-02T23:13:24.046Z,64.73
2023-04-02T23:16:45.733Z,66.42
2023-04-02T23:20:08.760Z,65.84
2023-04-02T23:23:31.563Z,63.67
2023-04-02T23:26:53.142Z,64.73
2023-04-02T23:30:19.537Z,64.55
2023-04-02T23:33:43.742Z,63.51
2023-04-02T23:37:05.423Z,64.12
2023-04-02T23:40:29.702Z,64.41
2023-04-02T23:43:51.587Z,63.00
2023-04-02T23:47:15.624Z,62.98
2023-04-02T23:50:37.481Z,62.84
2023-04-02T23:53:59.494Z,63.61
2023-04-02T23:57:21.128Z,64.25
